Terminal Aerodrome Forecast
Issued by NWS

Home | Current Version | Previous Version | Graphics & Text | Print | Product List | Glossary On
Versions: 1 2 3 4 5 6 7 8 9 10 11 12 13 14 15 16 17 18 19 20
000
FTUS43 KPAH 031723
TAFCGI
TAF
KCGI 031723Z 0318/0418 08003KT P6SM BKN035
     FM032000 09003KT P6SM SCT035
     FM040900 00000KT 4SM BR SKC
      TEMPO 0409/0413 1 1/2SM BR
     FM041500 19002KT P6SM SCT025=

USA.gov is the U.S. government's official web portal to all federal, state and local government web resources and services.